Umm Slal — V7PW3 — position and weather

sailwx.info

Track history (hours):
 
Tides and Currents Weather Stations Pressure Air Temp Water Temp Dewpoint Dewpoint Depression Visibility Wind Speed Wind Dir Waves Ship Positions

Umm Slal

Last reported at 2014-Nov-27 13:33 UTC. Time now 2014-Nov-29 01:22 UTC.
Position N 35°60' W 005°14'.

Length 345 m; draft 9.3 m.

Type: Ship (hazmat cat A). MMSI: 538003300.

Date/timePositionNaut miles runAvg speedWind from/ knotsBaromVisibWave heightAir tempDewpointWater temp
2014-Nov-27 13:33N 35°60' W 005°14'  
2014-Nov-21 01:11N 38°30' W 009°53'1117.5
2014-Nov-21 00:33N 38°19' W 009°50'1817.7
2014-Nov-20 23:33N 38°02' W 009°43'1817.7
2014-Nov-20 22:33N 37°45' W 009°38'1717.5
2014-Nov-20 21:33N 37°28' W 009°33'5914.7
2014-Nov-20 17:33N 36°38' W 008°54'1716.9
2014-Nov-20 16:33N 36°36' W 008°33'14917.5
2014-Nov-20 08:04N 35°58' W 005°34'916.9
2014-Nov-20 07:34N 36°01' W 005°24'17917.4
2014-Nov-19 21:16N 36°23' W 001°45'3517.7
2014-Nov-19 19:18N 36°34' W 001°04'1617.9
2014-Nov-19 18:24N 36°40' W 000°45'1618.2
2014-Nov-19 17:32N 36°45' W 000°27'1918.3
2014-Nov-19 16:30N 36°52' W 000°04'1718.1
2014-Nov-19 15:33N 36°57' E 000°16'1211.6
2014-Nov-19 14:33N 36°60' E 000°30'1818.1
2014-Nov-19 13:34N 37°05' E 000°52'2318.3
2014-Nov-19 12:18N 37°13' E 001°19'3318.4
2014-Nov-19 10:30N 37°23' E 001°58'1718.5
2014-Nov-19 09:33N 37°28' E 002°19'1918.5
2014-Nov-19 08:33N 37°30' E 002°43'1818.2
2014-Nov-19 07:33N 37°32' E 003°05'2017.9
2014-Nov-19 06:26N 37°35' E 003°31'1718.1
2014-Nov-19 05:29N 37°38' E 003°52'48417.3
2014-Nov-18 01:28N 36°24' E 013°51'2118.0
2014-Nov-18 00:19N 36°17' E 014°16'1418.1
2014-Nov-17 23:33N 36°14' E 014°32'  
Track history (hours):
 
Tides and Currents Weather Stations Pressure Air Temp Water Temp Dewpoint Dewpoint Depression Visibility Wind Speed Wind Dir Waves Ship Positions

Umm Slal

Last reported at 2014-Nov-27 13:33 UTC. Time now 2014-Nov-29 01:22 UTC.
Position N 35°60' W 005°14'.

Length 345 m; draft 9.3 m.

Type: Ship (hazmat cat A). MMSI: 538003300.

Date/timePositionNaut miles runAvg speedWind from/ knotsBaromVisibWave heightAir tempDewpointWater temp
2014-Nov-27 13:33N 35°60' W 005°14'  
2014-Nov-21 01:11N 38°30' W 009°53'1117.5
2014-Nov-21 00:33N 38°19' W 009°50'1817.7
2014-Nov-20 23:33N 38°02' W 009°43'1817.7
2014-Nov-20 22:33N 37°45' W 009°38'1717.5
2014-Nov-20 21:33N 37°28' W 009°33'5914.7
2014-Nov-20 17:33N 36°38' W 008°54'1716.9
2014-Nov-20 16:33N 36°36' W 008°33'14917.5
2014-Nov-20 08:04N 35°58' W 005°34'916.9
2014-Nov-20 07:34N 36°01' W 005°24'17917.4
2014-Nov-19 21:16N 36°23' W 001°45'3517.7
2014-Nov-19 19:18N 36°34' W 001°04'1617.9
2014-Nov-19 18:24N 36°40' W 000°45'1618.2
2014-Nov-19 17:32N 36°45' W 000°27'1918.3
2014-Nov-19 16:30N 36°52' W 000°04'1718.1
2014-Nov-19 15:33N 36°57' E 000°16'1211.6
2014-Nov-19 14:33N 36°60' E 000°30'1818.1
2014-Nov-19 13:34N 37°05' E 000°52'2318.3
2014-Nov-19 12:18N 37°13' E 001°19'3318.4
2014-Nov-19 10:30N 37°23' E 001°58'1718.5
2014-Nov-19 09:33N 37°28' E 002°19'1918.5
2014-Nov-19 08:33N 37°30' E 002°43'1818.2
2014-Nov-19 07:33N 37°32' E 003°05'2017.9
2014-Nov-19 06:26N 37°35' E 003°31'1718.1
2014-Nov-19 05:29N 37°38' E 003°52'48417.3
2014-Nov-18 01:28N 36°24' E 013°51'2118.0
2014-Nov-18 00:19N 36°17' E 014°16'1418.1
2014-Nov-17 23:33N 36°14' E 014°32'  

Dump ship's entire track history